258  
SXUS55 KTFX 212015  
OSOTFX  
 
AREA AWOS OBSERVATIONS  
NATIONAL WEATHER SERVICE GREAT FALLS MT  
215 PM MDT SAT SEP 21 2019  
 
METAR KCII 212010Z AUTO 25004KT 10SM 17/02 A2995 RMK A01  
METAR K6S0 212010Z AUTO 27021G31KT 10SM CLR 13/05 A3005 RMK A01  
METAR K7S6 212010Z AUTO 00000KT 10SM 11/05 A3004 RMK A01  
METAR K7S0 212010Z AUTO 17005G11KT 10SM 15/07 A3004 RMK A01  
METAR K7S0 212010Z AUTO 17005G11KT 10SM 15/07 A3004 RMK A01  
METAR K4U6 212010Z AUTO 30014KT 10SM 14/10 A2988 RMK A01  
 
CLICK HERE TO GO TO PREVIOUS BULLETINS.

The Nexlab MT Page Main Text Page